Time;durP1;ratioP1;P1;durP2;ratioP2;P2;SDS_P1;SDS_P2;PMS_P1;PMS_P2;Temp;Humidity;BMP_temperature;BMP_pressure;BME280_temperature;BME280_humidity;BME280_pressure;Samples;Min_cycle;Max_cycle;Signal;HPM_P1;HPM_P2
2022/04/26 03:39:12;;;;;;;11.48;5.70;;;8.30;99.90;;;;;;10255367;28;20094;-56
2022/04/26 03:44:14;;;;;;;13.32;5.50;;;8.40;99.90;;;;;;10256226;28;20153;-58
2022/04/26 03:49:15;;;;;;;11.50;4.75;;;8.40;99.90;;;;;;10257997;28;20422;-56
2022/04/26 03:54:18;;;;;;;12.50;5.72;;;8.40;99.90;;;;;;10243764;28;20058;-56
2022/04/26 03:59:20;;;;;;;11.30;4.82;;;8.40;99.90;;;;;;10259597;28;20341;-56
2022/04/26 04:04:21;;;;;;;14.38;5.65;;;8.50;99.90;;;;;;10257079;28;20580;-56
2022/04/26 04:09:23;;;;;;;11.98;5.63;;;8.60;99.90;;;;;;10259503;28;20789;-58
2022/04/26 04:14:25;;;;;;;15.13;6.25;;;8.70;99.90;;;;;;10260346;28;20050;-58
2022/04/26 04:19:27;;;;;;;13.93;5.97;;;8.70;99.90;;;;;;10258650;28;20474;-58
2022/04/26 04:24:29;;;;;;;15.02;5.93;;;8.80;99.90;;;;;;10254143;28;20576;-58
2022/04/26 04:29:31;;;;;;;10.07;5.10;;;8.90;99.90;;;;;;10258877;28;20065;-58
2022/04/26 04:34:33;;;;;;;13.02;5.25;;;9.00;99.90;;;;;;10254369;28;20054;-58
2022/04/26 04:39:35;;;;;;;12.90;5.75;;;9.00;99.90;;;;;;10257496;28;20444;-59
2022/04/26 04:44:37;;;;;;;13.95;6.25;;;9.10;99.90;;;;;;10262251;28;20343;-60
2022/04/26 04:49:39;;;;;;;12.40;6.03;;;9.20;99.90;;;;;;10264846;28;20050;-60
2022/04/26 04:54:41;;;;;;;12.27;4.88;;;9.10;99.90;;;;;;10261687;28;20058;-61
2022/04/26 04:59:43;;;;;;;13.48;6.53;;;9.20;99.90;;;;;;10257489;28;20038;-61
2022/04/26 05:04:45;;;;;;;14.45;6.35;;;9.10;99.90;;;;;;10264004;28;20055;-61
2022/04/26 05:09:46;;;;;;;14.25;6.05;;;9.10;99.90;;;;;;10263669;28;20047;-61
2022/04/26 05:14:48;;;;;;;15.68;6.28;;;9.20;99.90;;;;;;10264134;28;20094;-61
2022/04/26 05:19:50;;;;;;;21.08;6.85;;;9.10;99.90;;;;;;10260742;28;20051;-61
2022/04/26 05:24:58;;;;;;;16.08;6.72;;;9.10;99.90;;;;;;10223982;28;20486;-62
2022/04/26 05:29:59;;;;;;;14.05;5.90;;;9.00;99.90;;;;;;10202079;28;20044;-61
2022/04/26 05:35:03;;;;;;;17.13;7.28;;;9.00;99.90;;;;;;10224268;28;20051;-61
2022/04/26 05:40:05;;;;;;;18.75;6.05;;;9.00;99.90;;;;;;10268928;28;20089;-62
2022/04/26 05:45:07;;;;;;;12.88;4.57;;;8.90;99.90;;;;;;10274191;28;20047;-62
2022/04/26 05:50:10;;;;;;;14.18;6.13;;;8.90;99.90;;;;;;10271416;28;20051;-61
2022/04/26 05:55:12;;;;;;;15.82;6.00;;;8.90;99.90;;;;;;10269317;28;20049;-62
2022/04/26 06:00:14;;;;;;;11.57;5.35;;;8.90;99.90;;;;;;10266809;28;20106;-63
2022/04/26 06:05:16;;;;;;;14.55;6.03;;;8.90;99.90;;;;;;10249269;28;20110;-62
2022/04/26 06:10:18;;;;;;;15.52;4.93;;;8.90;99.90;;;;;;10262965;28;20065;-62
2022/04/26 06:15:21;;;;;;;11.32;4.72;;;8.90;99.90;;;;;;10268766;28;20459;-62
2022/04/26 06:20:24;;;;;;;14.77;5.43;;;9.00;99.90;;;;;;10265096;28;20055;-62
2022/04/26 06:25:26;;;;;;;14.63;4.72;;;9.00;99.90;;;;;;10264892;28;20444;-62
2022/04/26 06:30:29;;;;;;;14.57;5.93;;;9.10;99.90;;;;;;10264508;28;20051;-62
2022/04/26 06:35:30;;;;;;;12.60;5.68;;;9.10;99.90;;;;;;10261228;28;20061;-64
2022/04/26 06:40:32;;;;;;;18.83;6.50;;;8.90;99.90;;;;;;10264141;28;20048;-61
2022/04/26 06:45:34;;;;;;;15.98;5.85;;;9.00;99.90;;;;;;10268876;28;20047;-61
2022/04/26 06:50:36;;;;;;;19.33;6.13;;;9.10;99.90;;;;;;10262730;28;20042;-61
2022/04/26 06:55:38;;;;;;;20.05;7.15;;;9.20;99.90;;;;;;10262874;28;20728;-61
2022/04/26 07:00:40;;;;;;;14.75;6.13;;;9.20;99.90;;;;;;10261215;28;20097;-61
2022/04/26 07:05:41;;;;;;;19.35;7.30;;;9.20;99.90;;;;;;10260875;28;20502;-62
2022/04/26 07:10:43;;;;;;;16.00;6.22;;;9.30;99.90;;;;;;10262276;28;20054;-61
2022/04/26 07:15:45;;;;;;;20.48;5.15;;;9.30;99.90;;;;;;10262417;28;20046;-62
2022/04/26 07:20:47;;;;;;;13.75;5.85;;;9.30;99.90;;;;;;10260501;28;20106;-62
2022/04/26 07:25:51;;;;;;;17.20;7.05;;;9.30;99.90;;;;;;10262735;28;20056;-62
2022/04/26 07:30:53;;;;;;;14.18;5.82;;;9.30;99.90;;;;;;10255105;28;20046;-62
2022/04/26 07:35:56;;;;;;;16.90;6.80;;;9.40;99.90;;;;;;10258004;28;20498;-61
2022/04/26 07:40:58;;;;;;;17.08;6.85;;;9.40;99.90;;;;;;10258652;28;20063;-62
2022/04/26 07:45:59;;;;;;;19.35;6.88;;;9.40;99.90;;;;;;10258509;28;20054;-61
2022/04/26 07:51:03;;;;;;;21.35;7.57;;;9.40;99.90;;;;;;10257659;28;20051;-61
2022/04/26 07:56:05;;;;;;;15.93;6.82;;;9.50;99.90;;;;;;10264657;28;20059;-61
2022/04/26 08:01:07;;;;;;;19.58;6.85;;;9.50;99.90;;;;;;10258455;28;20062;-62
2022/04/26 08:06:09;;;;;;;18.38;5.90;;;9.50;99.90;;;;;;10264546;28;20748;-61
2022/04/26 08:11:14;;;;;;;18.88;6.35;;;9.60;99.90;;;;;;10257126;28;20051;-61
2022/04/26 08:16:16;;;;;;;18.25;6.60;;;9.60;99.90;;;;;;10253506;28;20054;-61
2022/04/26 08:21:19;;;;;;;11.95;5.97;;;9.60;99.90;;;;;;10258138;28;20173;-61
2022/04/26 08:31:43;;;;;;;9.35;3.80;;;9.60;99.90;;;;;;10258014;28;20035;-61
2022/04/26 08:36:46;;;;;;;13.25;3.50;;;9.60;99.90;;;;;;10255505;28;20046;-61
2022/04/26 08:41:47;;;;;;;5.10;1.90;;;9.70;99.90;;;;;;10257316;28;20047;-62
2022/04/26 08:52:11;;;;;;;1.92;0.57;;;9.60;99.90;;;;;;10261673;28;20064;-61
2022/04/26 08:57:13;;;;;;;3.95;0.80;;;9.50;99.90;;;;;;10255100;28;20055;-61
2022/04/26 09:02:20;;;;;;;6.25;1.50;;;9.40;99.90;;;;;;10253942;28;20053;-61
2022/04/26 09:07:30;;;;;;;;;;;9.40;99.90;;;;;;10259907;28;20042;-62
2022/04/26 09:12:32;;;;;;;14.00;4.80;;;9.50;99.90;;;;;;10250100;28;20341;-63
2022/04/26 09:17:33;;;;;;;16.13;6.05;;;9.60;99.90;;;;;;10256632;28;20050;-63
2022/04/26 09:22:38;;;;;;;11.57;4.72;;;9.60;99.90;;;;;;10253080;28;20053;-62
2022/04/26 09:27:41;;;;;;;10.05;4.32;;;9.50;99.90;;;;;;10247355;28;20046;-61
2022/04/26 09:32:44;;;;;;;10.88;3.88;;;9.50;99.90;;;;;;10264684;28;20058;-61
2022/04/26 09:37:46;;;;;;;8.25;3.38;;;9.30;99.90;;;;;;10264445;28;20047;-61
2022/04/26 09:42:55;;;;;;;5.13;2.65;;;9.40;99.90;;;;;;10264349;28;20490;-60
2022/04/26 09:47:57;;;;;;;6.75;2.65;;;9.40;99.90;;;;;;10267575;28;20114;-60
2022/04/26 09:52:59;;;;;;;6.45;2.67;;;9.40;99.90;;;;;;10263966;28;20082;-60
2022/04/26 09:58:02;;;;;;;4.97;2.63;;;9.40;99.90;;;;;;10263177;28;20458;-60
2022/04/26 10:03:09;;;;;;;9.57;3.40;;;9.50;99.90;;;;;;10258209;28;20051;-60
2022/04/26 10:08:15;;;;;;;9.75;3.92;;;9.60;99.90;;;;;;10259757;28;20931;-60
2022/04/26 10:13:35;;;;;;;8.38;3.25;;;9.70;99.90;;;;;;10257730;28;20047;-60
2022/04/26 10:18:47;;;;;;;8.30;3.63;;;9.80;99.90;;;;;;10259269;28;20379;-60
2022/04/26 10:23:52;;;;;;;8.68;2.22;;;9.80;99.90;;;;;;10254945;28;20050;-60
2022/04/26 10:28:59;;;;;;;6.32;2.47;;;9.80;99.90;;;;;;10259488;28;20050;-60
2022/04/26 10:34:14;;;;;;;8.32;2.45;;;9.90;99.90;;;;;;10259151;28;20062;-60
2022/04/26 10:39:34;;;;;;;8.85;2.10;;;9.90;99.90;;;;;;10259983;28;20054;-60
2022/04/26 10:44:45;;;;;;;4.57;1.40;;;9.80;99.90;;;;;;10259787;28;20386;-60
2022/04/26 10:49:49;;;;;;;5.38;1.30;;;9.70;99.90;;;;;;10259356;28;20038;-60
2022/04/26 10:55:02;;;;;;;4.03;1.00;;;9.60;99.90;;;;;;10262802;28;20050;-60
2022/04/26 11:00:10;;;;;;;2.45;1.10;;;9.60;99.90;;;;;;10256463;28;20055;-59
2022/04/26 11:05:34;;;;;;;3.05;0.82;;;9.60;99.90;;;;;;10240733;28;20062;-59
2022/04/26 11:16:12;;;;;;;3.53;1.05;;;9.70;99.90;;;;;;10263014;28;20043;-59
2022/04/26 11:21:14;;;;;;;2.03;0.70;;;9.70;99.90;;;;;;10256887;28;20050;-59
2022/04/26 11:31:43;;;;;;;5.45;0.38;;;9.80;99.90;;;;;;10260697;28;20051;-59
2022/04/26 11:36:44;;;;;;;2.13;0.30;;;9.70;99.90;;;;;;10259172;28;20047;-60
2022/04/26 11:41:46;;;;;;;0.57;0.22;;;9.70;99.90;;;;;;10262580;28;20485;-59
2022/04/26 11:47:00;;;;;;;0.38;0.17;;;9.60;99.90;;;;;;10260144;28;20046;-58
2022/04/26 11:52:02;;;;;;;0.20;0.10;;;9.70;99.90;;;;;;10258884;28;20138;-59
2022/04/26 11:57:04;;;;;;;0.17;0.10;;;9.50;99.90;;;;;;10261871;28;20378;-59
2022/04/26 12:02:07;;;;;;;1.95;0.10;;;9.50;99.90;;;;;;10253891;28;20050;-58
2022/04/26 12:07:09;;;;;;;0.47;0.30;;;9.60;99.90;;;;;;10254429;28;20047;-59
2022/04/26 12:12:12;;;;;;;0.73;0.30;;;9.50;99.90;;;;;;10255997;28;20046;-59
2022/04/26 12:17:18;;;;;;;1.08;0.30;;;9.50;99.90;;;;;;10255161;28;20046;-58
2022/04/26 12:22:28;;;;;;;4.03;0.70;;;9.50;99.90;;;;;;10255063;28;20058;-59
2022/04/26 12:27:32;;;;;;;1.40;1.08;;;9.60;99.90;;;;;;10261663;28;20061;-58
2022/04/26 12:32:40;;;;;;;1.33;0.55;;;9.50;99.90;;;;;;10249795;28;20073;-58
2022/04/26 12:37:42;;;;;;;1.42;0.77;;;9.60;99.90;;;;;;10252524;28;20573;-59
2022/04/26 12:42:45;;;;;;;1.90;0.50;;;9.80;99.90;;;;;;10256500;28;20047;-59
2022/04/26 12:53:28;;;;;;;1.65;0.70;;;10.10;99.90;;;;;;10243246;28;20102;-59
2022/04/26 12:58:39;;;;;;;2.08;0.65;;;10.20;99.90;;;;;;10257141;28;20051;-59
2022/04/26 13:03:42;;;;;;;2.25;0.80;;;10.20;99.90;;;;;;10255975;28;20436;-58
2022/04/26 13:08:48;;;;;;;2.08;1.05;;;10.10;99.90;;;;;;10262851;28;20048;-58
2022/04/26 13:13:51;;;;;;;2.17;1.10;;;10.10;99.90;;;;;;10263797;28;20060;-58
2022/04/26 13:18:52;;;;;;;2.40;1.23;;;10.10;99.90;;;;;;10267641;28;20059;-59
2022/04/26 13:23:57;;;;;;;4.03;1.52;;;10.10;99.90;;;;;;10249510;28;20776;-58
2022/04/26 13:28:59;;;;;;;5.30;2.17;;;10.00;99.90;;;;;;10261087;28;20121;-58
2022/04/26 13:34:00;;;;;;;2.90;1.30;;;9.90;99.90;;;;;;10263532;28;20497;-58
2022/04/26 13:39:22;;;;;;;2.78;1.58;;;9.80;99.90;;;;;;10265916;28;20125;-57
2022/04/26 13:44:23;;;;;;;3.65;1.95;;;9.70;99.90;;;;;;10260249;28;20055;-58
2022/04/26 13:49:25;;;;;;;3.42;1.50;;;9.60;99.90;;;;;;10263248;28;20043;-58
2022/04/26 13:54:27;;;;;;;4.05;1.65;;;9.50;99.90;;;;;;10264415;28;20047;-58
2022/04/26 13:59:29;;;;;;;3.53;1.60;;;9.50;99.90;;;;;;10259585;28;20069;-57
2022/04/26 14:04:36;;;;;;;5.25;2.08;;;9.50;99.90;;;;;;10253125;28;20039;-57
2022/04/26 14:09:38;;;;;;;3.88;1.70;;;9.40;99.90;;;;;;10257257;28;20054;-57
2022/04/26 14:25:20;;;;;;;3.42;1.30;;;9.40;99.90;;;;;;10259513;28;20042;-57
2022/04/26 14:30:22;;;;;;;4.43;2.17;;;9.50;99.90;;;;;;10261654;28;20146;-58
2022/04/26 14:35:44;;;;;;;2.75;1.77;;;9.50;99.90;;;;;;10253449;28;20043;-58
2022/04/26 14:40:47;;;;;;;4.85;1.85;;;9.50;99.90;;;;;;10259272;28;20101;-58
2022/04/26 14:45:51;;;;;;;3.97;2.30;;;9.50;99.90;;;;;;10245899;28;20043;-58
2022/04/26 14:50:54;;;;;;;5.78;2.20;;;9.60;99.90;;;;;;10262364;28;20073;-58
2022/04/26 14:55:59;;;;;;;4.70;2.13;;;9.70;99.90;;;;;;10247849;28;20133;-58
2022/04/26 15:01:01;;;;;;;6.38;2.60;;;9.90;99.90;;;;;;10232627;28;20168;-58
2022/04/26 15:06:03;;;;;;;6.55;2.28;;;10.00;99.90;;;;;;10255447;28;20046;-57
2022/04/26 15:11:04;;;;;;;8.32;2.38;;;10.10;99.90;;;;;;10253303;28;20067;-58
2022/04/26 15:21:27;;;;;;;5.53;2.42;;;10.20;99.90;;;;;;10256575;28;20043;-58
2022/04/26 15:26:29;;;;;;;3.90;1.80;;;10.20;99.90;;;;;;10259787;28;20049;-58
2022/04/26 15:31:31;;;;;;;4.55;1.63;;;10.20;99.90;;;;;;10263375;28;20058;-58
2022/04/26 15:36:33;;;;;;;4.95;1.80;;;10.20;99.90;;;;;;10256497;28;20058;-57
2022/04/26 15:41:35;;;;;;;4.10;2.33;;;10.20;99.90;;;;;;10259665;28;20046;-58
2022/04/26 15:46:36;;;;;;;4.60;2.53;;;10.20;99.90;;;;;;10254666;28;20378;-58
2022/04/26 15:51:41;;;;;;;3.95;2.05;;;10.30;99.90;;;;;;10260601;28;20053;-58
2022/04/26 15:56:43;;;;;;;4.88;1.55;;;10.20;99.90;;;;;;10263173;28;20533;-57
2022/04/26 16:01:46;;;;;;;4.95;2.28;;;10.20;99.90;;;;;;10264500;28;20039;-58
2022/04/26 16:06:48;;;;;;;4.88;2.28;;;10.30;99.90;;;;;;10254738;28;20577;-56
2022/04/26 16:22:47;;;;;;;2.17;1.47;;;10.30;99.90;;;;;;10148714;28;20050;-57
2022/04/26 16:27:49;;;;;;;5.18;1.75;;;10.20;99.90;;;;;;10256332;28;20493;-57
2022/04/26 16:32:57;;;;;;;4.40;1.15;;;10.20;99.90;;;;;;10261167;28;20050;-57
2022/04/26 16:37:59;;;;;;;2.92;1.23;;;10.10;99.90;;;;;;10259518;28;20051;-57
2022/04/26 16:43:02;;;;;;;3.17;1.40;;;9.90;99.90;;;;;;10267644;28;20050;-58
2022/04/26 16:48:04;;;;;;;3.00;1.67;;;9.90;99.90;;;;;;10254609;28;20047;-57
2022/04/26 16:53:06;;;;;;;4.40;2.08;;;9.80;99.90;;;;;;10262863;28;20061;-58
2022/04/26 16:58:08;;;;;;;3.55;1.80;;;9.70;99.90;;;;;;10266817;28;20043;-58
2022/04/26 17:03:10;;;;;;;3.30;1.50;;;9.60;99.90;;;;;;10266337;28;20098;-58
2022/04/26 17:08:12;;;;;;;5.35;1.95;;;9.40;99.90;;;;;;10266048;28;20055;-58
2022/04/26 17:13:15;;;;;;;3.55;1.60;;;9.40;99.90;;;;;;10263897;28;20043;-58
2022/04/26 17:18:17;;;;;;;2.70;1.17;;;9.30;99.90;;;;;;10268021;28;20051;-57
2022/04/26 17:23:19;;;;;;;3.28;1.02;;;9.30;99.90;;;;;;10227592;28;20051;-57
2022/04/26 17:28:23;;;;;;;5.63;1.48;;;9.20;99.90;;;;;;10249088;28;20118;-58
2022/04/26 17:33:24;;;;;;;3.15;1.52;;;9.10;99.90;;;;;;10260974;28;20050;-58
2022/04/26 17:38:26;;;;;;;3.15;1.20;;;9.10;99.90;;;;;;10265995;28;20058;-58
2022/04/26 17:43:28;;;;;;;2.80;1.55;;;9.00;99.90;;;;;;10260479;28;20050;-57
2022/04/26 17:48:32;;;;;;;3.88;1.80;;;8.90;99.90;;;;;;10257494;28;20593;-57
2022/04/26 17:58:58;;;;;;;3.97;1.75;;;8.90;99.90;;;;;;10258604;28;20457;-58
2022/04/26 18:04:01;;;;;;;2.85;1.30;;;8.80;99.90;;;;;;10269783;28;20061;-57
2022/04/26 18:09:03;;;;;;;3.78;1.35;;;8.80;99.90;;;;;;10260341;28;20058;-59
2022/04/26 18:14:04;;;;;;;2.95;1.15;;;8.80;99.90;;;;;;10265021;28;20058;-58
2022/04/26 18:19:07;;;;;;;2.67;1.42;;;8.80;99.90;;;;;;10263533;28;20061;-58
2022/04/26 18:24:08;;;;;;;4.07;1.35;;;8.80;99.90;;;;;;10263705;28;20047;-59
2022/04/26 18:29:19;;;;;;;5.78;1.55;;;8.80;99.90;;;;;;10261216;28;20077;-58
2022/04/26 18:34:21;;;;;;;4.72;1.65;;;8.80;99.90;;;;;;10259352;28;20047;-59
2022/04/26 18:39:23;;;;;;;2.25;1.23;;;8.80;99.90;;;;;;10259967;28;20050;-58
2022/04/26 18:44:25;;;;;;;5.82;1.70;;;8.80;99.90;;;;;;10266248;28;20078;-60
2022/04/26 18:49:29;;;;;;;2.58;1.77;;;8.70;99.90;;;;;;10259223;28;20125;-59
2022/04/26 18:54:30;;;;;;;1.95;1.10;;;8.70;99.90;;;;;;10263037;28;20512;-59
2022/04/26 18:59:33;;;;;;;3.08;1.77;;;8.70;99.90;;;;;;10262505;28;20051;-57
2022/04/26 19:04:34;;;;;;;3.92;1.45;;;8.70;99.90;;;;;;10256450;28;20058;-58
2022/04/26 19:12:15;;;;;;;3.17;2.00;;;8.60;99.90;;;;;;10260595;28;20046;-59
2022/04/26 19:14:59;;;;;;;2.70;1.23;;;8.60;99.90;;;;;;10268236;28;20129;-59
2022/04/26 19:20:01;;;;;;;4.95;1.80;;;8.60;99.90;;;;;;10271817;28;20055;-60
2022/04/26 19:25:03;;;;;;;2.63;1.63;;;8.60;99.90;;;;;;10272156;28;20058;-59
2022/04/26 19:30:05;;;;;;;4.70;1.90;;;8.50;99.90;;;;;;10247188;28;20051;-58
2022/04/26 19:35:07;;;;;;;9.90;1.88;;;8.50;99.90;;;;;;10266164;28;20055;-58
2022/04/26 19:40:09;;;;;;;4.03;2.10;;;8.40;99.90;;;;;;10237496;28;20051;-58
2022/04/26 19:45:12;;;;;;;4.82;2.25;;;8.30;99.90;;;;;;10260330;28;20050;-58
2022/04/26 19:55:55;;;;;;;4.68;2.10;;;8.30;99.90;;;;;;10153146;29;20055;-59
2022/04/26 20:00:56;;;;;;;6.75;3.08;;;8.30;99.90;;;;;;10236627;28;20058;-58
2022/04/26 20:05:58;;;;;;;8.30;3.05;;;8.30;99.90;;;;;;10261940;28;20062;-59
2022/04/26 20:11:00;;;;;;;4.10;2.13;;;8.20;99.90;;;;;;10258887;28;20109;-58
2022/04/26 20:16:02;;;;;;;5.28;2.50;;;8.30;99.90;;;;;;10256088;28;20059;-58
2022/04/26 20:21:04;;;;;;;6.68;2.55;;;8.30;99.90;;;;;;10247049;28;20150;-59
2022/04/26 20:31:30;;;;;;;4.63;2.80;;;8.30;99.90;;;;;;10216141;28;20044;-57
2022/04/26 20:36:32;;;;;;;4.40;2.38;;;8.30;99.90;;;;;;10212622;28;20047;-59
2022/04/26 20:41:34;;;;;;;4.15;2.63;;;8.20;99.90;;;;;;10252414;28;20142;-59
2022/04/26 20:46:36;;;;;;;7.57;3.28;;;8.30;99.90;;;;;;10252173;28;20529;-58
2022/04/26 20:51:37;;;;;;;5.53;2.75;;;8.30;99.90;;;;;;10259558;28;20122;-58
2022/04/26 20:56:39;;;;;;;7.15;4.28;;;8.30;99.90;;;;;;10258958;28;20168;-59
2022/04/26 21:01:41;;;;;;;7.38;2.88;;;8.30;99.90;;;;;;10259435;28;20051;-57
2022/04/26 21:06:46;;;;;;;7.75;3.53;;;8.30;99.90;;;;;;10261229;28;20058;-60
2022/04/26 21:11:48;;;;;;;9.48;3.20;;;8.30;99.90;;;;;;10230616;28;20058;-59
2022/04/26 21:16:50;;;;;;;8.45;3.25;;;8.20;99.90;;;;;;10257345;28;20103;-59
2022/04/26 21:21:52;;;;;;;6.80;3.70;;;8.30;99.90;;;;;;10236188;28;20043;-59
2022/04/26 21:26:53;;;;;;;8.88;4.30;;;8.20;99.90;;;;;;10208333;28;20055;-58
2022/04/26 21:31:55;;;;;;;6.75;3.05;;;8.20;99.90;;;;;;10204196;28;20051;-59
2022/04/26 21:36:57;;;;;;;7.50;3.45;;;8.10;99.90;;;;;;10169367;28;20114;-57
2022/04/26 21:41:59;;;;;;;10.13;4.18;;;8.10;99.90;;;;;;10222852;28;20106;-60
2022/04/26 21:47:01;;;;;;;8.10;3.80;;;8.10;99.90;;;;;;10221726;28;20058;-58
2022/04/26 21:52:03;;;;;;;9.32;4.70;;;8.10;99.90;;;;;;10217293;28;20107;-57
2022/04/26 21:57:04;;;;;;;7.40;3.80;;;8.10;99.90;;;;;;10262079;28;20113;-58
2022/04/26 22:02:06;;;;;;;9.90;4.18;;;8.10;99.90;;;;;;10251842;28;20048;-59
2022/04/26 22:07:11;;;;;;;6.80;4.03;;;8.10;99.90;;;;;;10245916;28;20551;-58
2022/04/26 22:12:13;;;;;;;6.63;3.50;;;8.20;99.90;;;;;;10259916;28;20059;-58
2022/04/26 22:17:14;;;;;;;10.63;3.78;;;8.20;99.90;;;;;;10263747;28;20086;-58
2022/04/26 22:22:16;;;;;;;7.45;3.35;;;8.20;99.90;;;;;;10261586;28;20133;-58
2022/04/26 22:27:18;;;;;;;7.57;3.15;;;8.20;99.90;;;;;;10261959;28;20069;-59
2022/04/26 22:32:20;;;;;;;6.22;2.97;;;8.20;99.90;;;;;;10261187;28;20054;-58
2022/04/26 22:37:22;;;;;;;6.13;3.00;;;8.20;99.90;;;;;;10260785;28;20423;-57
2022/04/26 22:42:24;;;;;;;8.23;3.25;;;8.20;99.90;;;;;;10257691;28;20058;-57
2022/04/26 22:47:28;;;;;;;5.93;3.13;;;8.10;99.90;;;;;;10245625;28;20051;-59
2022/04/26 22:52:29;;;;;;;8.30;3.75;;;8.20;99.90;;;;;;10262416;28;20066;-57
2022/04/26 22:57:31;;;;;;;7.00;4.18;;;8.20;99.90;;;;;;10263595;28;20050;-57
2022/04/26 23:02:33;;;;;;;6.68;3.42;;;8.10;99.90;;;;;;10259037;28;20055;-56
2022/04/26 23:07:35;;;;;;;6.68;3.63;;;8.20;99.90;;;;;;10257496;28;20134;-58
2022/04/26 23:12:38;;;;;;;7.22;3.47;;;8.10;99.90;;;;;;10258961;28;20382;-58
2022/04/26 23:17:41;;;;;;;7.18;4.35;;;8.10;99.90;;;;;;10225946;28;20094;-58
2022/04/26 23:22:42;;;;;;;8.52;4.90;;;8.10;99.90;;;;;;10242967;28;20518;-58
2022/04/26 23:27:44;;;;;;;10.50;4.03;;;8.00;99.90;;;;;;10260302;28;20050;-58
2022/04/26 23:32:46;;;;;;;5.80;3.65;;;7.90;99.90;;;;;;10259627;28;20054;-58
2022/04/26 23:37:47;;;;;;;8.90;4.47;;;7.80;99.90;;;;;;10257415;28;20066;-57
2022/04/26 23:42:49;;;;;;;6.95;4.00;;;7.80;99.90;;;;;;10261606;28;20043;-57
2022/04/26 23:47:51;;;;;;;8.88;4.15;;;7.70;99.90;;;;;;10257574;28;20058;-57
2022/04/26 23:52:55;;;;;;;7.68;3.92;;;7.60;99.90;;;;;;10261804;28;20046;-57
2022/04/26 23:57:57;;;;;;;8.32;4.13;;;7.40;99.90;;;;;;10255787;28;20051;-56
